sensor_id;sensor_type;location;lat;lon;timestamp;temperature;humidity
27188;DHT22;14708;50.872;5.306;2023-04-09T00:01:31;20.60;64.30
27188;DHT22;14708;50.872;5.306;2023-04-09T00:03:57;20.60;64.20
27188;DHT22;14708;50.872;5.306;2023-04-09T00:06:22;20.60;64.30
27188;DHT22;14708;50.872;5.306;2023-04-09T00:08:48;20.60;64.40
27188;DHT22;14708;50.872;5.306;2023-04-09T00:11:15;20.50;64.30
27188;DHT22;14708;50.872;5.306;2023-04-09T00:13:40;20.50;64.20
27188;DHT22;14708;50.872;5.306;2023-04-09T00:16:07;20.50;64.40
27188;DHT22;14708;50.872;5.306;2023-04-09T00:18:32;20.50;65.20
27188;DHT22;14708;50.872;5.306;2023-04-09T00:20:58;20.50;64.30
27188;DHT22;14708;50.872;5.306;2023-04-09T00:23:23;20.50;64.60
27188;DHT22;14708;50.872;5.306;2023-04-09T00:25:49;20.50;64.50
27188;DHT22;14708;50.872;5.306;2023-04-09T00:28:15;20.50;64.70
27188;DHT22;14708;50.872;5.306;2023-04-09T00:30:41;20.40;64.70
27188;DHT22;14708;50.872;5.306;2023-04-09T00:33:06;20.40;64.70
27188;DHT22;14708;50.872;5.306;2023-04-09T00:35:32;20.40;64.80
27188;DHT22;14708;50.872;5.306;2023-04-09T00:37:58;20.40;64.60
27188;DHT22;14708;50.872;5.306;2023-04-09T00:40:23;20.30;64.70
27188;DHT22;14708;50.872;5.306;2023-04-09T00:49:36;20.40;64.50
27188;DHT22;14708;50.872;5.306;2023-04-09T00:52:01;20.40;64.60
27188;DHT22;14708;50.872;5.306;2023-04-09T00:54:27;20.40;64.50
27188;DHT22;14708;50.872;5.306;2023-04-09T00:56:54;20.30;64.60
27188;DHT22;14708;50.872;5.306;2023-04-09T00:59:21;20.30;64.20
27188;DHT22;14708;50.872;5.306;2023-04-09T01:01:46;20.30;64.20
27188;DHT22;14708;50.872;5.306;2023-04-09T01:04:12;20.30;64.40
27188;DHT22;14708;50.872;5.306;2023-04-09T01:06:50;20.30;64.60
27188;DHT22;14708;50.872;5.306;2023-04-09T01:09:53;20.30;64.40
27188;DHT22;14708;50.872;5.306;2023-04-09T01:12:37;20.30;64.30
27188;DHT22;14708;50.872;5.306;2023-04-09T01:15:14;20.30;64.40
27188;DHT22;14708;50.872;5.306;2023-04-09T01:18:20;20.20;64.50
27188;DHT22;14708;50.872;5.306;2023-04-09T01:21:04;20.20;64.40
27188;DHT22;14708;50.872;5.306;2023-04-09T01:29:24;20.20;64.30
27188;DHT22;14708;50.872;5.306;2023-04-09T01:31:51;20.20;64.30
27188;DHT22;14708;50.872;5.306;2023-04-09T01:34:17;20.20;64.70
27188;DHT22;14708;50.872;5.306;2023-04-09T01:36:58;20.20;64.70
27188;DHT22;14708;50.872;5.306;2023-04-09T01:39:25;20.20;64.70
27188;DHT22;14708;50.872;5.306;2023-04-09T01:41:51;20.20;64.50
27188;DHT22;14708;50.872;5.306;2023-04-09T01:44:18;20.10;64.20
27188;DHT22;14708;50.872;5.306;2023-04-09T01:46:46;20.10;64.40
27188;DHT22;14708;50.872;5.306;2023-04-09T01:49:12;20.10;64.50
27188;DHT22;14708;50.872;5.306;2023-04-09T01:51:39;20.10;64.30
27188;DHT22;14708;50.872;5.306;2023-04-09T01:54:05;20.10;64.30
27188;DHT22;14708;50.872;5.306;2023-04-09T01:59:53;20.10;64.40
27188;DHT22;14708;50.872;5.306;2023-04-09T02:02:36;20.10;64.30
27188;DHT22;14708;50.872;5.306;2023-04-09T02:05:09;20.10;64.40
27188;DHT22;14708;50.872;5.306;2023-04-09T02:07:44;20.10;64.40
27188;DHT22;14708;50.872;5.306;2023-04-09T02:13:33;20.10;64.30
27188;DHT22;14708;50.872;5.306;2023-04-09T02:15:59;20.10;64.30
27188;DHT22;14708;50.872;5.306;2023-04-09T02:18:27;20.00;64.30
27188;DHT22;14708;50.872;5.306;2023-04-09T02:20:54;20.00;64.30
27188;DHT22;14708;50.872;5.306;2023-04-09T02:23:30;20.00;64.20
27188;DHT22;14708;50.872;5.306;2023-04-09T02:25:57;20.00;64.30
27188;DHT22;14708;50.872;5.306;2023-04-09T02:28:23;20.00;64.20
27188;DHT22;14708;50.872;5.306;2023-04-09T02:30:49;20.00;64.20
27188;DHT22;14708;50.872;5.306;2023-04-09T02:33:14;20.00;64.40
27188;DHT22;14708;50.872;5.306;2023-04-09T02:35:40;20.00;64.30
27188;DHT22;14708;50.872;5.306;2023-04-09T02:38:07;20.00;64.20
27188;DHT22;14708;50.872;5.306;2023-04-09T02:40:40;20.00;64.20
27188;DHT22;14708;50.872;5.306;2023-04-09T02:43:07;20.00;64.10
27188;DHT22;14708;50.872;5.306;2023-04-09T02:45:32;19.90;64.10
27188;DHT22;14708;50.872;5.306;2023-04-09T02:47:58;19.90;64.30
27188;DHT22;14708;50.872;5.306;2023-04-09T02:50:24;19.90;64.30
27188;DHT22;14708;50.872;5.306;2023-04-09T02:52:49;19.90;64.20
27188;DHT22;14708;50.872;5.306;2023-04-09T02:55:17;19.90;64.20
27188;DHT22;14708;50.872;5.306;2023-04-09T03:01:05;19.90;64.30
27188;DHT22;14708;50.872;5.306;2023-04-09T03:03:30;19.90;64.30
27188;DHT22;14708;50.872;5.306;2023-04-09T03:05:56;19.90;64.20
27188;DHT22;14708;50.872;5.306;2023-04-09T03:08:22;19.90;64.30
27188;DHT22;14708;50.872;5.306;2023-04-09T03:14:09;19.90;64.30
27188;DHT22;14708;50.872;5.306;2023-04-09T03:16:35;19.90;64.20
27188;DHT22;14708;50.872;5.306;2023-04-09T03:19:01;19.90;64.30
27188;DHT22;14708;50.872;5.306;2023-04-09T03:21:26;19.90;64.20
27188;DHT22;14708;50.872;5.306;2023-04-09T03:23:52;19.80;64.10
27188;DHT22;14708;50.872;5.306;2023-04-09T03:26:17;19.80;64.00
27188;DHT22;14708;50.872;5.306;2023-04-09T03:28:43;19.80;64.10
27188;DHT22;14708;50.872;5.306;2023-04-09T03:31:09;19.80;63.90
27188;DHT22;14708;50.872;5.306;2023-04-09T03:33:34;19.80;64.00
27188;DHT22;14708;50.872;5.306;2023-04-09T03:36:00;19.80;64.10
27188;DHT22;14708;50.872;5.306;2023-04-09T03:41:57;19.80;63.90
27188;DHT22;14708;50.872;5.306;2023-04-09T03:44:23;19.80;64.00
27188;DHT22;14708;50.872;5.306;2023-04-09T03:46:49;19.80;63.80
27188;DHT22;14708;50.872;5.306;2023-04-09T03:49:15;19.80;64.10
27188;DHT22;14708;50.872;5.306;2023-04-09T03:51:40;19.70;64.50
27188;DHT22;14708;50.872;5.306;2023-04-09T03:54:06;19.70;63.70
27188;DHT22;14708;50.872;5.306;2023-04-09T03:56:32;19.70;64.10
27188;DHT22;14708;50.872;5.306;2023-04-09T03:58:57;19.70;63.80
27188;DHT22;14708;50.872;5.306;2023-04-09T04:01:23;19.70;63.50
27188;DHT22;14708;50.872;5.306;2023-04-09T04:03:48;19.70;63.60
27188;DHT22;14708;50.872;5.306;2023-04-09T04:06:14;19.70;63.50
27188;DHT22;14708;50.872;5.306;2023-04-09T04:08:40;19.70;63.60
27188;DHT22;14708;50.872;5.306;2023-04-09T04:11:06;19.70;63.70
27188;DHT22;14708;50.872;5.306;2023-04-09T04:13:31;19.70;63.70
27188;DHT22;14708;50.872;5.306;2023-04-09T04:15:57;19.70;63.60
27188;DHT22;14708;50.872;5.306;2023-04-09T04:18:23;19.70;63.60
27188;DHT22;14708;50.872;5.306;2023-04-09T04:20:48;19.70;63.40
27188;DHT22;14708;50.872;5.306;2023-04-09T04:26:36;19.70;63.50
27188;DHT22;14708;50.872;5.306;2023-04-09T04:29:01;19.60;63.60
27188;DHT22;14708;50.872;5.306;2023-04-09T04:31:27;19.60;63.40
27188;DHT22;14708;50.872;5.306;2023-04-09T04:33:52;19.60;63.40
27188;DHT22;14708;50.872;5.306;2023-04-09T04:36:18;19.60;63.50
27188;DHT22;14708;50.872;5.306;2023-04-09T04:38:44;19.60;63.50
27188;DHT22;14708;50.872;5.306;2023-04-09T04:41:10;19.60;63.60
27188;DHT22;14708;50.872;5.306;2023-04-09T04:43:36;19.60;63.60
27188;DHT22;14708;50.872;5.306;2023-04-09T04:46:02;19.60;63.50
27188;DHT22;14708;50.872;5.306;2023-04-09T04:48:28;19.60;63.40
27188;DHT22;14708;50.872;5.306;2023-04-09T04:50:55;19.60;63.50
27188;DHT22;14708;50.872;5.306;2023-04-09T04:53:21;19.60;63.40
27188;DHT22;14708;50.872;5.306;2023-04-09T04:55:47;19.60;63.40
27188;DHT22;14708;50.872;5.306;2023-04-09T05:15:02;19.50;63.30
27188;DHT22;14708;50.872;5.306;2023-04-09T05:17:28;19.50;63.30
27188;DHT22;14708;50.872;5.306;2023-04-09T05:19:53;19.50;63.30
27188;DHT22;14708;50.872;5.306;2023-04-09T05:22:19;19.50;63.40
27188;DHT22;14708;50.872;5.306;2023-04-09T05:24:45;19.50;63.50
27188;DHT22;14708;50.872;5.306;2023-04-09T05:27:10;19.50;63.30
27188;DHT22;14708;50.872;5.306;2023-04-09T05:29:36;19.50;63.30
27188;DHT22;14708;50.872;5.306;2023-04-09T05:32:02;19.50;63.40
27188;DHT22;14708;50.872;5.306;2023-04-09T05:34:28;19.50;63.20
27188;DHT22;14708;50.872;5.306;2023-04-09T05:36:53;19.50;63.20
27188;DHT22;14708;50.872;5.306;2023-04-09T05:39:20;19.50;63.10
27188;DHT22;14708;50.872;5.306;2023-04-09T05:41:45;19.50;63.20
27188;DHT22;14708;50.872;5.306;2023-04-09T05:44:11;19.50;63.20
27188;DHT22;14708;50.872;5.306;2023-04-09T05:46:37;19.50;63.00
27188;DHT22;14708;50.872;5.306;2023-04-09T05:49:03;19.50;63.00
27188;DHT22;14708;50.872;5.306;2023-04-09T05:51:29;19.50;63.10
27188;DHT22;14708;50.872;5.306;2023-04-09T05:53:55;19.50;63.00
27188;DHT22;14708;50.872;5.306;2023-04-09T05:56:20;19.50;62.90
27188;DHT22;14708;50.872;5.306;2023-04-09T05:58:50;19.50;62.80
27188;DHT22;14708;50.872;5.306;2023-04-09T06:01:16;19.50;62.90
27188;DHT22;14708;50.872;5.306;2023-04-09T06:03:42;19.50;63.20
27188;DHT22;14708;50.872;5.306;2023-04-09T06:06:08;19.50;62.50
27188;DHT22;14708;50.872;5.306;2023-04-09T06:08:34;19.60;62.30
27188;DHT22;14708;50.872;5.306;2023-04-09T06:10:59;19.60;59.70
27188;DHT22;14708;50.872;5.306;2023-04-09T06:13:25;19.70;61.30
27188;DHT22;14708;50.872;5.306;2023-04-09T06:15:51;19.80;61.60
27188;DHT22;14708;50.872;5.306;2023-04-09T06:18:17;19.90;61.30
27188;DHT22;14708;50.872;5.306;2023-04-09T06:20:42;20.00;61.70
27188;DHT22;14708;50.872;5.306;2023-04-09T06:23:08;20.10;62.10
27188;DHT22;14708;50.872;5.306;2023-04-09T06:25:35;20.20;61.60
27188;DHT22;14708;50.872;5.306;2023-04-09T06:28:01;20.20;61.50
27188;DHT22;14708;50.872;5.306;2023-04-09T06:30:27;20.30;61.30
27188;DHT22;14708;50.872;5.306;2023-04-09T06:32:53;20.30;62.00
27188;DHT22;14708;50.872;5.306;2023-04-09T06:35:19;20.40;61.00
27188;DHT22;14708;50.872;5.306;2023-04-09T06:37:45;20.40;61.00
27188;DHT22;14708;50.872;5.306;2023-04-09T06:40:11;20.50;61.20
27188;DHT22;14708;50.872;5.306;2023-04-09T06:42:36;20.50;60.90
27188;DHT22;14708;50.872;5.306;2023-04-09T06:45:03;20.50;60.80
27188;DHT22;14708;50.872;5.306;2023-04-09T06:47:33;20.60;60.70
27188;DHT22;14708;50.872;5.306;2023-04-09T06:49:59;20.60;61.60
27188;DHT22;14708;50.872;5.306;2023-04-09T06:52:25;20.60;61.30
27188;DHT22;14708;50.872;5.306;2023-04-09T06:54:51;20.60;61.40
27188;DHT22;14708;50.872;5.306;2023-04-09T06:57:16;20.60;61.40
27188;DHT22;14708;50.872;5.306;2023-04-09T06:59:42;20.60;61.50
27188;DHT22;14708;50.872;5.306;2023-04-09T07:02:08;20.70;61.70
27188;DHT22;14708;50.872;5.306;2023-04-09T07:04:33;20.70;61.70
27188;DHT22;14708;50.872;5.306;2023-04-09T07:07:00;20.70;61.90
27188;DHT22;14708;50.872;5.306;2023-04-09T07:09:25;20.70;61.10
27188;DHT22;14708;50.872;5.306;2023-04-09T07:11:51;20.70;61.90
27188;DHT22;14708;50.872;5.306;2023-04-09T07:14:16;20.80;62.00
27188;DHT22;14708;50.872;5.306;2023-04-09T07:16:42;20.80;61.90
27188;DHT22;14708;50.872;5.306;2023-04-09T07:19:11;20.80;61.90
27188;DHT22;14708;50.872;5.306;2023-04-09T07:21:36;20.80;60.40
27188;DHT22;14708;50.872;5.306;2023-04-09T07:24:02;20.80;58.70
27188;DHT22;14708;50.872;5.306;2023-04-09T07:29:56;20.80;60.50
27188;DHT22;14708;50.872;5.306;2023-04-09T07:32:22;20.80;60.60
27188;DHT22;14708;50.872;5.306;2023-04-09T07:34:51;20.80;60.60
27188;DHT22;14708;50.872;5.306;2023-04-09T07:37:17;20.80;60.60
27188;DHT22;14708;50.872;5.306;2023-04-09T07:39:43;20.90;60.60
27188;DHT22;14708;50.872;5.306;2023-04-09T07:42:08;20.90;60.70
27188;DHT22;14708;50.872;5.306;2023-04-09T07:44:35;20.90;60.80
27188;DHT22;14708;50.872;5.306;2023-04-09T07:47:05;20.90;60.90
27188;DHT22;14708;50.872;5.306;2023-04-09T07:49:31;20.90;60.80
27188;DHT22;14708;50.872;5.306;2023-04-09T07:51:58;20.90;60.90
27188;DHT22;14708;50.872;5.306;2023-04-09T07:54:24;20.90;60.80
27188;DHT22;14708;50.872;5.306;2023-04-09T07:56:50;20.90;61.00
27188;DHT22;14708;50.872;5.306;2023-04-09T07:59:16;20.90;61.10
27188;DHT22;14708;50.872;5.306;2023-04-09T08:01:42;20.90;61.10
27188;DHT22;14708;50.872;5.306;2023-04-09T08:04:08;20.90;60.90
27188;DHT22;14708;50.872;5.306;2023-04-09T08:06:34;20.90;61.10
27188;DHT22;14708;50.872;5.306;2023-04-09T08:09:01;21.00;61.20
27188;DHT22;14708;50.872;5.306;2023-04-09T08:11:26;21.00;61.30
27188;DHT22;14708;50.872;5.306;2023-04-09T08:13:53;21.00;61.20
27188;DHT22;14708;50.872;5.306;2023-04-09T08:16:19;20.90;61.30
27188;DHT22;14708;50.872;5.306;2023-04-09T08:18:46;21.00;61.40
27188;DHT22;14708;50.872;5.306;2023-04-09T08:21:12;20.90;61.30
27188;DHT22;14708;50.872;5.306;2023-04-09T08:23:38;21.00;60.80
27188;DHT22;14708;50.872;5.306;2023-04-09T08:26:03;21.00;61.80
27188;DHT22;14708;50.872;5.306;2023-04-09T08:28:29;21.00;60.90
27188;DHT22;14708;50.872;5.306;2023-04-09T08:30:57;21.00;60.70
27188;DHT22;14708;50.872;5.306;2023-04-09T08:33:24;20.90;61.10
27188;DHT22;14708;50.872;5.306;2023-04-09T08:35:50;20.90;61.50
27188;DHT22;14708;50.872;5.306;2023-04-09T08:38:18;20.90;61.70
27188;DHT22;14708;50.872;5.306;2023-04-09T08:41:04;20.90;61.40
27188;DHT22;14708;50.872;5.306;2023-04-09T08:43:31;20.90;61.20
27188;DHT22;14708;50.872;5.306;2023-04-09T08:45:57;20.90;60.90
27188;DHT22;14708;50.872;5.306;2023-04-09T08:48:24;20.90;60.70
27188;DHT22;14708;50.872;5.306;2023-04-09T08:50:50;20.90;57.40
27188;DHT22;14708;50.872;5.306;2023-04-09T08:53:16;20.90;60.00
27188;DHT22;14708;50.872;5.306;2023-04-09T08:55:46;20.80;60.00
27188;DHT22;14708;50.872;5.306;2023-04-09T08:58:31;20.80;61.00
27188;DHT22;14708;50.872;5.306;2023-04-09T09:00:56;20.80;59.40
27188;DHT22;14708;50.872;5.306;2023-04-09T09:03:22;20.80;58.60
27188;DHT22;14708;50.872;5.306;2023-04-09T09:05:48;20.90;57.30
27188;DHT22;14708;50.872;5.306;2023-04-09T09:08:23;20.90;59.50
27188;DHT22;14708;50.872;5.306;2023-04-09T09:10:48;21.00;57.30
27188;DHT22;14708;50.872;5.306;2023-04-09T09:13:22;21.00;56.70
27188;DHT22;14708;50.872;5.306;2023-04-09T09:15:53;21.00;56.40
27188;DHT22;14708;50.872;5.306;2023-04-09T09:18:39;21.10;57.00
27188;DHT22;14708;50.872;5.306;2023-04-09T09:21:15;21.10;55.20
27188;DHT22;14708;50.872;5.306;2023-04-09T09:23:42;21.10;57.70
27188;DHT22;14708;50.872;5.306;2023-04-09T09:26:17;21.10;58.60
27188;DHT22;14708;50.872;5.306;2023-04-09T09:28:47;21.10;58.60
27188;DHT22;14708;50.872;5.306;2023-04-09T09:31:14;21.10;57.90
27188;DHT22;14708;50.872;5.306;2023-04-09T09:33:40;21.10;57.80
27188;DHT22;14708;50.872;5.306;2023-04-09T09:36:06;21.10;58.50
27188;DHT22;14708;50.872;5.306;2023-04-09T09:41:17;21.10;53.90
27188;DHT22;14708;50.872;5.306;2023-04-09T09:43:44;21.20;53.90
27188;DHT22;14708;50.872;5.306;2023-04-09T09:46:10;21.10;57.50
27188;DHT22;14708;50.872;5.306;2023-04-09T09:48:41;21.00;57.10
27188;DHT22;14708;50.872;5.306;2023-04-09T09:51:09;21.00;57.50
27188;DHT22;14708;50.872;5.306;2023-04-09T09:53:44;21.00;57.60
27188;DHT22;14708;50.872;5.306;2023-04-09T09:56:22;21.00;57.00
27188;DHT22;14708;50.872;5.306;2023-04-09T09:59:22;20.90;57.50
27188;DHT22;14708;50.872;5.306;2023-04-09T10:01:57;20.90;58.20
27188;DHT22;14708;50.872;5.306;2023-04-09T10:04:27;20.90;58.60
27188;DHT22;14708;50.872;5.306;2023-04-09T10:06:54;20.90;59.20
27188;DHT22;14708;50.872;5.306;2023-04-09T10:09:21;20.90;59.20
27188;DHT22;14708;50.872;5.306;2023-04-09T10:11:47;21.00;59.60
27188;DHT22;14708;50.872;5.306;2023-04-09T10:14:15;21.00;60.30
27188;DHT22;14708;50.872;5.306;2023-04-09T10:16:42;21.00;60.20
27188;DHT22;14708;50.872;5.306;2023-04-09T10:19:08;21.00;60.70
27188;DHT22;14708;50.872;5.306;2023-04-09T10:21:52;21.00;60.70
27188;DHT22;14708;50.872;5.306;2023-04-09T10:24:21;21.00;60.70
27188;DHT22;14708;50.872;5.306;2023-04-09T10:26:47;20.90;60.30
27188;DHT22;14708;50.872;5.306;2023-04-09T10:29:14;20.90;60.20
27188;DHT22;14708;50.872;5.306;2023-04-09T10:31:51;20.90;60.40
27188;DHT22;14708;50.872;5.306;2023-04-09T10:34:20;21.00;59.50
27188;DHT22;14708;50.872;5.306;2023-04-09T10:36:50;21.00;59.90
27188;DHT22;14708;50.872;5.306;2023-04-09T10:39:19;21.00;60.10
27188;DHT22;14708;50.872;5.306;2023-04-09T10:41:47;21.00;60.30
27188;DHT22;14708;50.872;5.306;2023-04-09T10:44:24;21.00;60.40
27188;DHT22;14708;50.872;5.306;2023-04-09T10:46:54;20.90;60.60
27188;DHT22;14708;50.872;5.306;2023-04-09T10:49:25;21.00;60.50
27188;DHT22;14708;50.872;5.306;2023-04-09T10:54:37;21.00;60.70
27188;DHT22;14708;50.872;5.306;2023-04-09T10:59:32;21.00;60.20
27188;DHT22;14708;50.872;5.306;2023-04-09T11:01:58;21.00;59.80
27188;DHT22;14708;50.872;5.306;2023-04-09T11:04:33;21.00;59.60
27188;DHT22;14708;50.872;5.306;2023-04-09T11:07:04;21.00;59.20
27188;DHT22;14708;50.872;5.306;2023-04-09T11:09:34;21.00;59.00
27188;DHT22;14708;50.872;5.306;2023-04-09T11:12:00;20.90;58.90
27188;DHT22;14708;50.872;5.306;2023-04-09T11:14:26;20.90;59.90
27188;DHT22;14708;50.872;5.306;2023-04-09T11:16:54;20.90;60.10
27188;DHT22;14708;50.872;5.306;2023-04-09T11:19:20;20.80;59.90
27188;DHT22;14708;50.872;5.306;2023-04-09T11:21:47;20.80;60.00
27188;DHT22;14708;50.872;5.306;2023-04-09T11:24:13;20.80;60.20
27188;DHT22;14708;50.872;5.306;2023-04-09T11:26:39;20.80;61.30
27188;DHT22;14708;50.872;5.306;2023-04-09T11:29:08;20.90;60.50
27188;DHT22;14708;50.872;5.306;2023-04-09T11:31:37;20.80;61.10
27188;DHT22;14708;50.872;5.306;2023-04-09T11:34:02;20.90;61.20
27188;DHT22;14708;50.872;5.306;2023-04-09T11:36:28;21.00;61.80
27188;DHT22;14708;50.872;5.306;2023-04-09T11:38:54;21.00;61.70
27188;DHT22;14708;50.872;5.306;2023-04-09T11:41:34;21.00;61.30
27188;DHT22;14708;50.872;5.306;2023-04-09T11:44:03;21.10;61.30
27188;DHT22;14708;50.872;5.306;2023-04-09T11:46:36;21.20;60.90
27188;DHT22;14708;50.872;5.306;2023-04-09T11:49:03;21.30;60.90
27188;DHT22;14708;50.872;5.306;2023-04-09T11:51:29;21.40;60.70
27188;DHT22;14708;50.872;5.306;2023-04-09T11:54:08;21.50;59.90
27188;DHT22;14708;50.872;5.306;2023-04-09T11:56:36;21.50;60.00
27188;DHT22;14708;50.872;5.306;2023-04-09T11:59:04;21.50;59.80
27188;DHT22;14708;50.872;5.306;2023-04-09T12:01:33;21.60;59.70
27188;DHT22;14708;50.872;5.306;2023-04-09T12:03:59;21.60;59.60
27188;DHT22;14708;50.872;5.306;2023-04-09T12:06:26;21.60;59.60
27188;DHT22;14708;50.872;5.306;2023-04-09T12:08:53;21.60;59.60
27188;DHT22;14708;50.872;5.306;2023-04-09T12:11:18;21.60;59.90
27188;DHT22;14708;50.872;5.306;2023-04-09T12:13:45;21.60;59.80
27188;DHT22;14708;50.872;5.306;2023-04-09T12:16:11;21.60;59.70
27188;DHT22;14708;50.872;5.306;2023-04-09T12:18:40;21.60;59.80
27188;DHT22;14708;50.872;5.306;2023-04-09T12:21:05;21.60;60.30
27188;DHT22;14708;50.872;5.306;2023-04-09T12:23:31;21.60;59.60
27188;DHT22;14708;50.872;5.306;2023-04-09T12:25:57;21.60;59.80
27188;DHT22;14708;50.872;5.306;2023-04-09T12:28:26;21.60;59.60
27188;DHT22;14708;50.872;5.306;2023-04-09T12:30:52;21.60;59.70
27188;DHT22;14708;50.872;5.306;2023-04-09T12:33:18;21.60;59.70
27188;DHT22;14708;50.872;5.306;2023-04-09T12:35:44;21.70;59.80
27188;DHT22;14708;50.872;5.306;2023-04-09T12:38:10;21.60;59.50
27188;DHT22;14708;50.872;5.306;2023-04-09T12:40:36;21.60;59.50
27188;DHT22;14708;50.872;5.306;2023-04-09T12:43:02;21.60;59.70
27188;DHT22;14708;50.872;5.306;2023-04-09T12:45:28;21.60;59.60
27188;DHT22;14708;50.872;5.306;2023-04-09T12:47:54;21.60;59.70
27188;DHT22;14708;50.872;5.306;2023-04-09T12:50:20;21.60;59.70
27188;DHT22;14708;50.872;5.306;2023-04-09T12:52:46;21.60;59.60
27188;DHT22;14708;50.872;5.306;2023-04-09T12:55:13;21.60;59.90
27188;DHT22;14708;50.872;5.306;2023-04-09T12:57:42;21.60;59.60
27188;DHT22;14708;50.872;5.306;2023-04-09T13:00:09;21.70;59.70
27188;DHT22;14708;50.872;5.306;2023-04-09T13:02:35;21.80;59.70
27188;DHT22;14708;50.872;5.306;2023-04-09T13:05:01;21.80;59.70
27188;DHT22;14708;50.872;5.306;2023-04-09T13:07:27;21.90;59.60
27188;DHT22;14708;50.872;5.306;2023-04-09T13:09:54;21.90;59.30
27188;DHT22;14708;50.872;5.306;2023-04-09T13:12:20;21.90;58.20
27188;DHT22;14708;50.872;5.306;2023-04-09T13:14:47;22.00;58.10
27188;DHT22;14708;50.872;5.306;2023-04-09T13:17:15;22.10;58.30
27188;DHT22;14708;50.872;5.306;2023-04-09T13:19:41;22.10;57.90
27188;DHT22;14708;50.872;5.306;2023-04-09T13:22:07;22.10;58.00
27188;DHT22;14708;50.872;5.306;2023-04-09T13:24:37;22.20;58.60
27188;DHT22;14708;50.872;5.306;2023-04-09T13:27:04;22.20;58.90
27188;DHT22;14708;50.872;5.306;2023-04-09T13:29:30;22.30;58.80
27188;DHT22;14708;50.872;5.306;2023-04-09T13:31:56;22.30;59.20
27188;DHT22;14708;50.872;5.306;2023-04-09T13:34:25;22.40;59.70
27188;DHT22;14708;50.872;5.306;2023-04-09T13:36:51;22.40;60.00
27188;DHT22;14708;50.872;5.306;2023-04-09T13:39:17;22.40;60.30
27188;DHT22;14708;50.872;5.306;2023-04-09T13:41:42;22.50;61.20
27188;DHT22;14708;50.872;5.306;2023-04-09T13:44:08;22.60;61.40
27188;DHT22;14708;50.872;5.306;2023-04-09T13:46:34;22.60;61.50
27188;DHT22;14708;50.872;5.306;2023-04-09T13:48:59;22.60;61.70
27188;DHT22;14708;50.872;5.306;2023-04-09T13:51:26;22.60;61.90
27188;DHT22;14708;50.872;5.306;2023-04-09T13:53:52;22.70;62.10
27188;DHT22;14708;50.872;5.306;2023-04-09T13:56:18;22.70;62.30
27188;DHT22;14708;50.872;5.306;2023-04-09T13:58:44;22.80;62.80
27188;DHT22;14708;50.872;5.306;2023-04-09T14:01:10;22.70;62.80
27188;DHT22;14708;50.872;5.306;2023-04-09T14:03:36;22.70;63.40
27188;DHT22;14708;50.872;5.306;2023-04-09T14:06:07;22.70;63.20
27188;DHT22;14708;50.872;5.306;2023-04-09T14:08:33;22.70;63.90
27188;DHT22;14708;50.872;5.306;2023-04-09T14:10:59;22.80;65.00
27188;DHT22;14708;50.872;5.306;2023-04-09T14:13:25;22.80;65.10
27188;DHT22;14708;50.872;5.306;2023-04-09T14:15:51;22.80;65.30
27188;DHT22;14708;50.872;5.306;2023-04-09T14:18:16;22.80;65.70
27188;DHT22;14708;50.872;5.306;2023-04-09T14:20:42;22.90;65.50
27188;DHT22;14708;50.872;5.306;2023-04-09T14:23:08;22.80;66.00
27188;DHT22;14708;50.872;5.306;2023-04-09T14:25:34;22.70;65.50
27188;DHT22;14708;50.872;5.306;2023-04-09T14:27:59;22.90;65.20
27188;DHT22;14708;50.872;5.306;2023-04-09T14:30:26;22.90;63.90
27188;DHT22;14708;50.872;5.306;2023-04-09T14:32:51;22.80;62.30
27188;DHT22;14708;50.872;5.306;2023-04-09T14:35:17;22.80;61.60
27188;DHT22;14708;50.872;5.306;2023-04-09T14:37:43;22.80;61.00
27188;DHT22;14708;50.872;5.306;2023-04-09T14:40:09;22.80;60.70
27188;DHT22;14708;50.872;5.306;2023-04-09T14:42:34;22.80;60.90
27188;DHT22;14708;50.872;5.306;2023-04-09T14:45:01;22.80;61.20
27188;DHT22;14708;50.872;5.306;2023-04-09T14:47:26;22.80;61.10
27188;DHT22;14708;50.872;5.306;2023-04-09T14:49:52;22.80;61.70
27188;DHT22;14708;50.872;5.306;2023-04-09T14:52:18;22.90;61.70
27188;DHT22;14708;50.872;5.306;2023-04-09T14:54:43;22.90;61.90
27188;DHT22;14708;50.872;5.306;2023-04-09T14:57:09;22.90;62.80
27188;DHT22;14708;50.872;5.306;2023-04-09T14:59:35;22.90;62.20
27188;DHT22;14708;50.872;5.306;2023-04-09T15:02:00;22.90;62.40
27188;DHT22;14708;50.872;5.306;2023-04-09T15:04:27;23.00;62.40
27188;DHT22;14708;50.872;5.306;2023-04-09T15:06:52;23.00;62.60
27188;DHT22;14708;50.872;5.306;2023-04-09T15:09:18;23.00;62.30
27188;DHT22;14708;50.872;5.306;2023-04-09T15:11:44;23.00;62.40
27188;DHT22;14708;50.872;5.306;2023-04-09T15:14:09;22.90;62.30
27188;DHT22;14708;50.872;5.306;2023-04-09T15:16:35;22.80;62.50
27188;DHT22;14708;50.872;5.306;2023-04-09T15:19:02;22.80;62.70
27188;DHT22;14708;50.872;5.306;2023-04-09T15:21:28;22.70;63.00
27188;DHT22;14708;50.872;5.306;2023-04-09T15:23:54;22.70;63.00
27188;DHT22;14708;50.872;5.306;2023-04-09T15:26:20;22.70;63.20
27188;DHT22;14708;50.872;5.306;2023-04-09T15:28:46;22.60;63.20
27188;DHT22;14708;50.872;5.306;2023-04-09T15:31:12;22.60;63.20
27188;DHT22;14708;50.872;5.306;2023-04-09T15:33:40;22.60;63.20
27188;DHT22;14708;50.872;5.306;2023-04-09T15:36:06;22.60;62.30
27188;DHT22;14708;50.872;5.306;2023-04-09T15:38:32;22.80;61.80
27188;DHT22;14708;50.872;5.306;2023-04-09T15:40:58;22.80;61.90
27188;DHT22;14708;50.872;5.306;2023-04-09T15:43:24;22.90;62.10
27188;DHT22;14708;50.872;5.306;2023-04-09T15:45:50;23.00;62.30
27188;DHT22;14708;50.872;5.306;2023-04-09T15:48:16;23.00;61.90
27188;DHT22;14708;50.872;5.306;2023-04-09T15:50:42;23.00;62.60
27188;DHT22;14708;50.872;5.306;2023-04-09T15:53:07;23.00;62.70
27188;DHT22;14708;50.872;5.306;2023-04-09T15:55:33;23.00;63.00
27188;DHT22;14708;50.872;5.306;2023-04-09T15:57:59;23.00;63.00
27188;DHT22;14708;50.872;5.306;2023-04-09T16:00:24;23.00;63.20
27188;DHT22;14708;50.872;5.306;2023-04-09T16:02:51;23.00;63.20
27188;DHT22;14708;50.872;5.306;2023-04-09T16:05:17;22.90;63.50
27188;DHT22;14708;50.872;5.306;2023-04-09T16:07:43;22.90;63.80
27188;DHT22;14708;50.872;5.306;2023-04-09T16:10:09;23.00;64.20
27188;DHT22;14708;50.872;5.306;2023-04-09T16:12:35;23.00;64.20
27188;DHT22;14708;50.872;5.306;2023-04-09T16:15:01;23.00;64.30
27188;DHT22;14708;50.872;5.306;2023-04-09T16:17:27;23.00;64.40
27188;DHT22;14708;50.872;5.306;2023-04-09T16:19:53;23.10;64.70
27188;DHT22;14708;50.872;5.306;2023-04-09T16:22:18;23.20;64.90
27188;DHT22;14708;50.872;5.306;2023-04-09T16:24:46;23.30;64.60
27188;DHT22;14708;50.872;5.306;2023-04-09T16:27:12;23.40;64.10
27188;DHT22;14708;50.872;5.306;2023-04-09T16:29:38;23.50;63.00
27188;DHT22;14708;50.872;5.306;2023-04-09T16:32:04;23.60;62.40